Ana Sayfa
METAR-TAF:

METAR-TAF

Havaalanları :

Kuveyt, Kuveyt

Enlem: 29-13N, Boylam: 047-59E, yükseklik: 55 m

Güncel hava durumu gözlemi

Rapor saat 16:00 UTC de 20 dakika önce yapıldı.
Rüzgar kuzeydan 4 kt
Sıcaklık 22°C
Nem 60%
Basınç 1017 hPa
Görüş mesafesi 10 km veya daha fazla
1500 m altında bulut yok ve kümülonimbus yok

METAR: OKBK 131600Z 01004KT CAVOK 22/14 Q1017 NOSIG

Saat: 19:20 (16:20 UTC)

Tahmin

Rapor saat 10:45 UTC de 5 saat ve 35 dakika önce yapıldı.
Ayın 13'si saat 12 UTC'den ayın 14'si saat 18 UTC'ye kadar geçerli Tahmin
Rüzgar kuzeydan 8 kt ve 18 kt'a kadar ani rüzgarlar
Görüş mesafesi: 7000 m
4000 ft yükseklikte parçalı bulutlu
8000 ft yükseklikte parçalı çok bulutlu
Geçici
ayın 13'si saat 18 UTC'den ayın 14'si saat 06 UTC'ye kadar
Görüş mesafesi: 3000 m
2500 ft yükseklikte az bulutlu, Kümülonimbus.
gök gürültülü fırtına, yağmur

TAF: OKBK 131045Z 1312/1418 35008G18KT 7000 SCT040 BKN080 TEMPO 1318/1406 3000 TSRA FEW025CB

4.000'den fazla havaalanı için hava durumu gözlemleri ve tahminleri (METAR ve TAF raporları).

Kullanılabilir istasyonlar harita üzerinde sarı ve kırmızı noktalarla gösterilir.

İstasyonun adını görmek için fareyi noktanın üzerinde gezdirin.

Sonrasında hava gözlem ve tahminlerini görmek için tıklayın.

Haritayı değiştirmek için: yaklaştırmak için siyah artı işaretli yeşil düğmeye ve uzaklaştırmak için de eksi işaretli düğmeye hızla tıklayın; bitişik haritalar için yeşil okları kullanın.


METAR-TAF: